createdAt,value
2017-06-28T00:00:45.937Z,19.20
2017-06-28T00:03:13.453Z,19.20
2017-06-28T00:05:40.936Z,19.20
2017-06-28T00:08:08.431Z,19.20
2017-06-28T00:10:35.965Z,19.20
2017-06-28T00:13:03.496Z,19.20
2017-06-28T00:15:31.044Z,19.10
2017-06-28T00:17:58.565Z,19.10
2017-06-28T00:20:26.848Z,19.00
2017-06-28T00:22:54.332Z,19.00
2017-06-28T00:25:21.932Z,19.00
2017-06-28T00:27:49.476Z,18.90
2017-06-28T00:30:17.020Z,18.90
2017-06-28T00:32:44.764Z,18.90
2017-06-28T00:35:12.312Z,18.80
2017-06-28T00:37:39.808Z,18.80
2017-06-28T00:40:07.375Z,18.80
2017-06-28T00:42:35.643Z,18.80
2017-06-28T00:45:03.932Z,18.80
2017-06-28T00:47:31.488Z,18.70
2017-06-28T00:49:59.016Z,18.70
2017-06-28T00:52:26.499Z,18.60
2017-06-28T00:54:54.196Z,18.60
2017-06-28T00:57:21.739Z,18.60
2017-06-28T00:59:49.276Z,18.70
2017-06-28T01:02:17.544Z,18.60
2017-06-28T01:04:45.023Z,18.60
2017-06-28T01:07:12.524Z,18.60
2017-06-28T01:09:40.277Z,18.60
2017-06-28T01:12:07.783Z,18.60
2017-06-28T01:14:35.280Z,18.60
2017-06-28T01:17:02.953Z,18.60
2017-06-28T01:19:30.451Z,18.60
2017-06-28T01:21:57.994Z,18.60
2017-06-28T01:24:25.508Z,18.60
2017-06-28T01:26:53.085Z,18.60
2017-06-28T01:29:20.598Z,18.50
2017-06-28T01:31:48.098Z,18.50
2017-06-28T01:34:15.609Z,18.50
2017-06-28T01:36:43.153Z,18.50
2017-06-28T01:39:10.696Z,18.50
2017-06-28T01:41:38.192Z,18.50
2017-06-28T01:44:05.684Z,18.50
2017-06-28T01:46:33.199Z,18.50
2017-06-28T01:49:00.769Z,18.50
2017-06-28T01:51:28.290Z,18.50
2017-06-28T01:53:56.573Z,18.40
2017-06-28T01:56:24.111Z,18.40
2017-06-28T01:58:51.661Z,18.40
2017-06-28T02:01:19.144Z,18.50
2017-06-28T02:03:46.641Z,18.40
2017-06-28T02:06:14.188Z,18.40
2017-06-28T02:08:41.668Z,18.40
2017-06-28T02:11:09.157Z,18.40
2017-06-28T02:13:36.689Z,18.40
2017-06-28T02:16:04.954Z,18.40
2017-06-28T02:18:33.237Z,18.40
2017-06-28T02:21:00.784Z,18.40
2017-06-28T02:23:28.269Z,18.40
2017-06-28T02:25:55.764Z,18.40
2017-06-28T02:28:23.306Z,18.40
2017-06-28T02:30:50.848Z,18.40
2017-06-28T02:33:18.392Z,18.40
2017-06-28T02:35:45.880Z,18.40
2017-06-28T02:38:13.397Z,18.40
2017-06-28T02:40:40.930Z,18.40
2017-06-28T02:43:08.420Z,18.40
2017-06-28T02:45:35.965Z,18.40
2017-06-28T02:48:03.456Z,18.40
2017-06-28T02:50:30.935Z,18.40
2017-06-28T02:52:58.633Z,18.40
2017-06-28T02:55:26.185Z,18.50
2017-06-28T02:57:53.684Z,18.50
2017-06-28T03:00:21.164Z,18.50
2017-06-28T03:02:48.639Z,18.60
2017-06-28T03:05:16.164Z,18.60
2017-06-28T03:07:43.640Z,18.60
2017-06-28T03:10:11.148Z,18.60
2017-06-28T03:12:38.888Z,18.50
2017-06-28T03:15:06.382Z,18.60
2017-06-28T03:17:33.889Z,18.50
2017-06-28T03:20:01.416Z,18.60
2017-06-28T03:22:28.963Z,18.60
2017-06-28T03:24:56.444Z,18.70
2017-06-28T03:27:24.144Z,18.70
2017-06-28T03:29:51.692Z,18.70
2017-06-28T03:32:19.168Z,18.70
2017-06-28T03:34:46.864Z,18.80
2017-06-28T03:37:15.140Z,18.80
2017-06-28T03:39:42.620Z,18.80
2017-06-28T03:42:10.120Z,18.80
2017-06-28T03:44:37.600Z,18.90
2017-06-28T03:47:05.317Z,18.90
2017-06-28T03:49:32.805Z,18.90
2017-06-28T03:52:00.288Z,19.00
2017-06-28T03:54:28.765Z,19.10
2017-06-28T03:56:56.240Z,19.10
2017-06-28T03:59:23.775Z,19.10
2017-06-28T04:01:51.492Z,19.20
2017-06-28T04:04:19.037Z,19.10
2017-06-28T04:06:46.613Z,19.20
2017-06-28T04:09:14.225Z,19.20
2017-06-28T04:11:41.768Z,19.30
2017-06-28T04:14:09.261Z,19.30
2017-06-28T04:16:36.780Z,19.30
2017-06-28T04:19:04.282Z,19.30
2017-06-28T04:21:32.633Z,19.30
2017-06-28T04:24:00.152Z,19.40
2017-06-28T04:26:27.644Z,19.40
2017-06-28T04:28:55.190Z,19.50
2017-06-28T04:31:22.937Z,19.50
2017-06-28T04:33:50.480Z,19.50
2017-06-28T04:36:18.030Z,19.60
2017-06-28T04:38:45.772Z,19.60
2017-06-28T04:41:13.318Z,19.60
2017-06-28T04:43:40.880Z,19.70
2017-06-28T04:46:08.405Z,19.60
2017-06-28T04:48:35.958Z,19.80
2017-06-28T04:51:03.498Z,19.80
2017-06-28T04:53:30.975Z,19.80
2017-06-28T04:55:58.448Z,19.90
2017-06-28T04:58:26.017Z,19.90
2017-06-28T05:00:53.568Z,19.90
2017-06-28T05:03:21.053Z,19.90
2017-06-28T05:05:48.532Z,19.90
2017-06-28T05:08:16.895Z,19.90
2017-06-28T05:10:45.144Z,19.90
2017-06-28T05:13:12.632Z,19.90
2017-06-28T05:15:40.163Z,19.90
2017-06-28T05:18:07.668Z,19.90
2017-06-28T05:20:35.152Z,19.90
2017-06-28T05:23:02.684Z,19.80
2017-06-28T05:25:30.224Z,19.80
2017-06-28T05:27:57.773Z,19.80
2017-06-28T05:30:25.287Z,19.70
2017-06-28T05:32:53.540Z,19.70
2017-06-28T05:35:21.016Z,19.70
2017-06-28T05:37:48.555Z,19.70
2017-06-28T05:40:16.032Z,19.80
2017-06-28T05:42:43.745Z,19.80
2017-06-28T05:45:11.232Z,19.90
2017-06-28T05:47:38.727Z,19.90
2017-06-28T05:50:06.481Z,19.90
2017-06-28T05:52:33.981Z,20.00
2017-06-28T05:55:01.464Z,20.00
2017-06-28T05:57:28.985Z,20.00
2017-06-28T05:59:57.231Z,19.90
2017-06-28T06:02:24.811Z,19.90
2017-06-28T06:04:52.356Z,20.00
2017-06-28T06:07:19.900Z,20.10
2017-06-28T06:09:47.440Z,20.20
2017-06-28T06:12:14.984Z,20.30
2017-06-28T06:14:42.529Z,20.50
2017-06-28T06:17:10.058Z,20.60
2017-06-28T06:19:38.330Z,20.90
2017-06-28T06:22:05.883Z,20.90
2017-06-28T06:24:33.437Z,21.10
2017-06-28T06:27:00.960Z,21.20
2017-06-28T06:29:28.505Z,21.20
2017-06-28T06:31:56.048Z,21.20
2017-06-28T06:34:23.588Z,21.10
2017-06-28T06:36:51.140Z,21.10
2017-06-28T06:39:18.681Z,21.10
2017-06-28T06:41:46.220Z,21.00
2017-06-28T06:44:13.766Z,21.10
2017-06-28T06:46:41.284Z,21.20
2017-06-28T06:49:09.529Z,21.40
2017-06-28T06:51:37.033Z,21.40
2017-06-28T06:54:04.533Z,21.50
2017-06-28T06:56:32.812Z,21.70
2017-06-28T06:59:00.359Z,21.60
2017-06-28T07:01:27.839Z,21.70
2017-06-28T07:03:55.352Z,21.80
2017-06-28T07:06:22.884Z,21.90
2017-06-28T07:08:50.365Z,22.00
2017-06-28T07:11:17.897Z,22.00
2017-06-28T07:13:45.372Z,22.00
2017-06-28T07:16:12.956Z,22.10
2017-06-28T07:18:40.451Z,22.10
2017-06-28T07:21:07.948Z,22.20
2017-06-28T07:23:35.487Z,22.30
2017-06-28T07:26:03.452Z,22.50
2017-06-28T07:28:30.933Z,22.80
2017-06-28T07:30:58.422Z,23.00
2017-06-28T07:33:25.936Z,23.20
2017-06-28T07:35:53.416Z,23.40
2017-06-28T07:38:20.952Z,23.60
2017-06-28T07:40:48.497Z,23.70
2017-06-28T07:43:15.976Z,23.80
2017-06-28T07:45:43.465Z,23.90
2017-06-28T07:48:11.712Z,24.00
2017-06-28T07:50:39.212Z,24.00
2017-06-28T07:53:06.712Z,24.10
2017-06-28T07:55:34.992Z,24.30
2017-06-28T07:58:02.496Z,24.30
2017-06-28T08:00:30.063Z,24.50
2017-06-28T08:02:58.307Z,24.80
2017-06-28T08:05:26.559Z,25.00
2017-06-28T08:07:54.141Z,25.00
2017-06-28T08:10:21.672Z,25.30
2017-06-28T08:12:50.039Z,25.50
2017-06-28T08:15:17.580Z,25.40
2017-06-28T08:17:45.056Z,25.50
2017-06-28T08:20:12.548Z,25.40
2017-06-28T08:22:40.809Z,25.30
2017-06-28T08:25:09.321Z,25.40
2017-06-28T08:27:36.804Z,25.30
2017-06-28T08:30:04.307Z,25.30
2017-06-28T08:32:31.829Z,25.20
2017-06-28T08:34:59.476Z,25.20
2017-06-28T08:37:26.964Z,25.20
2017-06-28T08:39:54.440Z,25.30
2017-06-28T08:42:22.700Z,25.40
2017-06-28T08:44:50.972Z,25.50
2017-06-28T08:47:18.516Z,25.50
2017-06-28T08:49:46.059Z,25.60
2017-06-28T08:52:13.605Z,25.90
2017-06-28T08:54:41.151Z,25.90
2017-06-28T08:57:08.646Z,26.20
2017-06-28T08:59:36.145Z,26.50
2017-06-28T09:02:03.671Z,26.60
2017-06-28T09:04:31.949Z,26.80
2017-06-28T09:06:59.431Z,26.70
2017-06-28T09:09:26.922Z,26.80
2017-06-28T09:11:54.464Z,26.90
2017-06-28T09:14:22.005Z,26.90
2017-06-28T09:16:49.552Z,27.20
2017-06-28T09:19:17.028Z,27.40
2017-06-28T09:21:44.560Z,27.40
2017-06-28T09:24:12.076Z,27.50
2017-06-28T09:26:39.637Z,27.50
2017-06-28T09:29:07.279Z,27.40
2017-06-28T09:31:34.768Z,27.30
2017-06-28T09:34:02.357Z,27.00
2017-06-28T09:36:29.895Z,27.10
2017-06-28T09:38:57.440Z,27.10
2017-06-28T09:41:24.985Z,27.10
2017-06-28T09:43:52.500Z,26.90
2017-06-28T09:46:20.078Z,26.90
2017-06-28T09:48:47.612Z,27.00
2017-06-28T09:51:15.104Z,26.90
2017-06-28T09:53:42.580Z,27.10
2017-06-28T09:56:10.860Z,27.20
2017-06-28T09:58:38.344Z,27.20
2017-06-28T10:01:05.844Z,27.40
2017-06-28T10:03:33.417Z,27.50
2017-06-28T10:06:00.931Z,27.40
2017-06-28T10:08:28.485Z,27.40
2017-06-28T10:10:56.225Z,27.30
2017-06-28T10:13:23.773Z,27.20
2017-06-28T10:15:51.244Z,27.10
2017-06-28T10:18:18.749Z,27.00
2017-06-28T10:20:46.312Z,26.80
2017-06-28T10:23:13.837Z,26.50
2017-06-28T10:25:41.325Z,26.20
2017-06-28T10:28:08.850Z,26.00
2017-06-28T10:30:36.341Z,25.90
2017-06-28T10:33:03.821Z,25.60
2017-06-28T10:35:31.352Z,25.30
2017-06-28T10:37:58.833Z,25.20
2017-06-28T10:40:26.346Z,25.10
2017-06-28T10:42:53.870Z,25.10
2017-06-28T10:45:22.147Z,24.80
2017-06-28T10:47:49.680Z,24.80
2017-06-28T10:50:17.260Z,24.50
2017-06-28T10:52:44.771Z,24.30
2017-06-28T10:55:12.316Z,24.10
2017-06-28T10:57:39.847Z,24.00
2017-06-28T11:00:08.120Z,23.60
2017-06-28T11:02:35.627Z,23.60
2017-06-28T11:05:03.182Z,23.50
2017-06-28T11:07:31.428Z,23.50
2017-06-28T11:09:58.916Z,23.40
2017-06-28T11:12:26.457Z,23.50
2017-06-28T11:14:53.990Z,23.30
2017-06-28T11:17:21.472Z,23.30
2017-06-28T11:19:48.995Z,23.30
2017-06-28T11:22:16.538Z,23.30
2017-06-28T11:24:44.021Z,23.30
2017-06-28T11:27:11.707Z,23.40
2017-06-28T11:29:39.190Z,23.50
2017-06-28T11:32:06.676Z,23.70
2017-06-28T11:34:35.121Z,24.10
2017-06-28T11:37:02.862Z,24.10
2017-06-28T11:39:30.351Z,24.40
2017-06-28T11:41:57.895Z,24.80
2017-06-28T11:44:25.436Z,25.00
2017-06-28T11:46:52.976Z,25.20
2017-06-28T11:49:20.521Z,25.30
2017-06-28T11:51:48.093Z,25.40
2017-06-28T11:54:15.578Z,25.60
2017-06-28T11:56:43.077Z,25.50
2017-06-28T11:59:10.597Z,25.50
2017-06-28T12:01:38.131Z,25.60
2017-06-28T12:04:05.613Z,25.60
2017-06-28T12:06:33.129Z,25.70
2017-06-28T12:09:00.664Z,25.70
2017-06-28T12:11:28.209Z,25.70
2017-06-28T12:13:55.857Z,25.80
2017-06-28T12:16:23.335Z,25.70
2017-06-28T12:18:50.940Z,25.60
2017-06-28T12:21:18.428Z,25.30
2017-06-28T12:23:45.923Z,25.00
2017-06-28T12:26:13.463Z,24.80
2017-06-28T12:28:40.947Z,24.70
2017-06-28T12:31:08.770Z,24.60
2017-06-28T12:33:36.268Z,24.30
2017-06-28T12:36:04.770Z,24.20
2017-06-28T12:38:32.298Z,23.90
2017-06-28T12:41:00.579Z,23.90
2017-06-28T12:43:28.056Z,23.90
2017-06-28T12:45:55.560Z,24.00
2017-06-28T12:48:23.257Z,24.00
2017-06-28T12:50:50.849Z,23.90
2017-06-28T12:53:18.397Z,23.70
2017-06-28T12:55:45.937Z,23.70
2017-06-28T12:58:13.479Z,23.60
2017-06-28T13:00:41.033Z,23.60
2017-06-28T13:03:08.524Z,23.50
2017-06-28T13:05:36.043Z,23.50
2017-06-28T13:08:03.572Z,23.60
2017-06-28T13:10:31.053Z,23.70
2017-06-28T13:12:58.740Z,23.80
2017-06-28T13:15:26.290Z,23.70
2017-06-28T13:17:53.828Z,23.80
2017-06-28T13:20:21.320Z,23.80
2017-06-28T13:22:48.802Z,23.90
2017-06-28T13:25:17.275Z,24.10
2017-06-28T13:27:44.752Z,24.10
2017-06-28T13:30:12.262Z,24.10
2017-06-28T13:32:39.787Z,24.30
2017-06-28T13:35:08.094Z,24.40
2017-06-28T13:37:35.577Z,24.40
2017-06-28T13:40:03.081Z,24.60
2017-06-28T13:42:30.622Z,24.70
2017-06-28T13:44:58.137Z,25.00
2017-06-28T13:47:25.676Z,25.30
2017-06-28T13:49:53.192Z,25.70
2017-06-28T13:52:20.660Z,26.10
2017-06-28T13:54:48.136Z,26.60
2017-06-28T13:57:15.745Z,27.30
2017-06-28T13:59:44.009Z,28.10
2017-06-28T14:02:11.484Z,28.10
2017-06-28T14:04:39.100Z,28.30
2017-06-28T14:07:06.749Z,28.10
2017-06-28T14:09:34.241Z,28.40
2017-06-28T14:12:01.938Z,29.10
2017-06-28T14:14:29.477Z,30.20
2017-06-28T14:16:56.948Z,31.50
2017-06-28T14:19:24.669Z,31.80
2017-06-28T14:21:52.208Z,32.00
2017-06-28T14:24:19.748Z,31.70
2017-06-28T14:26:48.112Z,30.90
2017-06-28T14:29:16.352Z,30.30
2017-06-28T14:31:44.589Z,29.60
2017-06-28T14:34:12.176Z,29.50
2017-06-28T14:36:39.657Z,29.10
2017-06-28T14:39:08.115Z,28.70
2017-06-28T14:41:35.836Z,28.20
2017-06-28T14:44:03.321Z,27.40
2017-06-28T14:46:30.824Z,26.70
2017-06-28T14:48:58.328Z,24.50
2017-06-28T14:51:26.619Z,20.90
2017-06-28T14:53:54.093Z,20.80
2017-06-28T14:56:21.609Z,20.30
2017-06-28T14:58:49.149Z,19.90
2017-06-28T15:01:16.688Z,19.70
2017-06-28T15:03:44.959Z,19.70
2017-06-28T15:06:12.501Z,19.60
2017-06-28T15:08:40.062Z,19.90
2017-06-28T15:11:07.550Z,20.00
2017-06-28T15:13:35.035Z,20.20
2017-06-28T15:16:02.581Z,20.40
2017-06-28T15:18:30.065Z,20.40
2017-06-28T15:20:57.536Z,20.40
2017-06-28T15:23:25.816Z,20.10
2017-06-28T15:25:53.292Z,20.00
2017-06-28T15:28:20.795Z,20.00
2017-06-28T15:30:48.269Z,19.90
2017-06-28T15:33:15.783Z,19.90
2017-06-28T15:35:43.330Z,19.90
2017-06-28T15:38:10.815Z,20.00
2017-06-28T15:40:38.308Z,20.10
2017-06-28T15:43:05.862Z,20.10
2017-06-28T15:45:33.393Z,20.20
2017-06-28T15:48:00.881Z,20.20
2017-06-28T15:50:28.525Z,20.30
2017-06-28T15:52:56.046Z,20.30
2017-06-28T15:55:23.576Z,20.30
2017-06-28T15:57:51.097Z,20.30
2017-06-28T16:00:19.376Z,20.20
2017-06-28T16:02:46.916Z,20.20
2017-06-28T16:05:14.400Z,20.20
2017-06-28T16:07:41.908Z,20.30
2017-06-28T16:10:09.462Z,20.30
2017-06-28T16:12:36.977Z,20.40
2017-06-28T16:15:05.260Z,20.60
2017-06-28T16:23:33.725Z,20.60
2017-06-28T16:26:01.197Z,20.60
2017-06-28T16:28:28.705Z,20.60
2017-06-28T16:30:56.244Z,20.60
2017-06-28T16:33:23.793Z,20.50
2017-06-28T16:35:51.338Z,20.50
2017-06-28T16:38:18.841Z,20.50
2017-06-28T16:40:46.425Z,20.40
2017-06-28T16:43:13.968Z,20.40
2017-06-28T16:45:41.468Z,20.40
2017-06-28T16:48:09.066Z,20.30
2017-06-28T16:50:36.624Z,20.30
2017-06-28T16:53:04.131Z,20.40
2017-06-28T16:55:31.638Z,20.50
2017-06-28T16:57:59.224Z,20.50
2017-06-28T17:00:26.705Z,20.60
2017-06-28T17:02:54.221Z,20.70
2017-06-28T17:05:21.757Z,20.80
2017-06-28T17:07:49.296Z,20.90
2017-06-28T17:10:17.313Z,21.10
2017-06-28T17:12:44.955Z,21.20
2017-06-28T17:15:12.452Z,21.20
2017-06-28T17:17:40.008Z,21.30
2017-06-28T17:20:07.529Z,21.30
2017-06-28T17:22:35.061Z,21.30
2017-06-28T17:25:02.733Z,21.30
2017-06-28T17:27:30.228Z,21.30
2017-06-28T17:29:57.793Z,21.30
2017-06-28T17:32:26.068Z,21.30
2017-06-28T17:34:53.576Z,21.30
2017-06-28T17:37:21.869Z,21.30
2017-06-28T17:39:49.411Z,21.30
2017-06-28T17:42:16.888Z,21.30
2017-06-28T17:44:44.396Z,21.30
2017-06-28T17:47:11.936Z,21.20
2017-06-28T17:49:39.419Z,21.20
2017-06-28T17:52:07.009Z,21.20
2017-06-28T17:54:34.545Z,21.20
2017-06-28T17:57:02.825Z,21.20
2017-06-28T17:59:30.571Z,21.20
2017-06-28T18:01:58.819Z,21.20
2017-06-28T18:04:27.323Z,21.20
2017-06-28T18:06:54.936Z,21.20
2017-06-28T18:09:23.318Z,21.30
2017-06-28T18:11:50.799Z,21.30
2017-06-28T18:14:18.276Z,21.40
2017-06-28T18:16:46.568Z,21.60
2017-06-28T18:19:14.069Z,21.50
2017-06-28T18:21:41.554Z,21.70
2017-06-28T18:24:09.953Z,21.70
2017-06-28T18:26:37.456Z,21.90
2017-06-28T18:29:04.960Z,22.00
2017-06-28T18:31:32.652Z,22.10
2017-06-28T18:34:01.288Z,22.10
2017-06-28T18:36:29.583Z,21.90
2017-06-28T18:38:57.108Z,21.90
2017-06-28T18:41:24.661Z,21.80
2017-06-28T18:43:52.403Z,21.70
2017-06-28T18:46:19.884Z,21.60
2017-06-28T18:48:47.384Z,21.50
2017-06-28T18:51:15.144Z,21.40
2017-06-28T18:53:42.620Z,21.30
2017-06-28T18:56:10.109Z,21.30
2017-06-28T18:58:37.623Z,21.20
2017-06-28T19:01:05.111Z,21.10
2017-06-28T19:03:32.744Z,21.10
2017-06-28T19:06:00.248Z,21.00
2017-06-28T19:08:27.729Z,20.90
2017-06-28T19:10:55.977Z,20.80
2017-06-28T19:13:24.248Z,20.80
2017-06-28T19:15:52.512Z,20.70
2017-06-28T19:18:20.882Z,20.70
2017-06-28T19:20:48.421Z,20.60
2017-06-28T19:23:15.912Z,20.60
2017-06-28T19:25:43.624Z,20.50
2017-06-28T19:28:11.108Z,20.40
2017-06-28T19:30:38.672Z,20.40
2017-06-28T19:33:06.754Z,20.30
2017-06-28T19:35:34.267Z,20.20
2017-06-28T19:38:02.683Z,20.10
2017-06-28T19:40:30.425Z,20.00
2017-06-28T19:42:57.952Z,20.00
2017-06-28T19:45:25.493Z,19.90
2017-06-28T19:47:53.041Z,19.90
2017-06-28T19:50:20.528Z,19.80
2017-06-28T19:52:48.016Z,19.80
2017-06-28T19:55:15.501Z,19.70
2017-06-28T19:57:43.025Z,19.70
2017-06-28T20:00:10.549Z,19.70
2017-06-28T20:02:38.057Z,19.70
2017-06-28T20:05:05.561Z,19.70
2017-06-28T20:07:33.326Z,19.60
2017-06-28T20:10:00.880Z,19.60
2017-06-28T20:12:28.468Z,19.60
2017-06-28T20:14:56.221Z,19.60
2017-06-28T20:17:23.765Z,19.50
2017-06-28T20:19:51.308Z,19.50
2017-06-28T20:22:19.052Z,19.50
2017-06-28T20:24:46.534Z,19.40
2017-06-28T20:27:14.041Z,19.40
2017-06-28T20:29:41.561Z,19.30
2017-06-28T20:32:09.817Z,19.30
2017-06-28T20:34:37.300Z,19.30
2017-06-28T20:37:04.831Z,19.20
2017-06-28T20:39:32.361Z,19.20
2017-06-28T20:42:00.801Z,19.10
2017-06-28T20:44:28.588Z,19.10
2017-06-28T20:46:56.073Z,19.10
2017-06-28T20:49:23.572Z,19.00
2017-06-28T20:51:51.139Z,19.00
2017-06-28T20:54:18.620Z,19.00
2017-06-28T20:56:46.203Z,18.90
2017-06-28T20:59:13.749Z,18.90
2017-06-28T21:01:41.244Z,18.90
2017-06-28T21:04:08.797Z,18.90
2017-06-28T21:06:36.293Z,18.80
2017-06-28T21:09:03.804Z,18.80
2017-06-28T21:11:31.363Z,18.80
2017-06-28T21:13:58.904Z,18.70
2017-06-28T21:16:26.387Z,18.70
2017-06-28T21:18:53.885Z,18.70
2017-06-28T21:21:21.430Z,18.70
2017-06-28T21:23:48.944Z,18.70
2017-06-28T21:26:16.430Z,18.60
2017-06-28T21:28:43.965Z,18.60
2017-06-28T21:31:11.501Z,18.50
2017-06-28T21:33:39.019Z,18.50
2017-06-28T21:36:07.285Z,18.50
2017-06-28T21:38:35.632Z,18.50
2017-06-28T21:41:03.175Z,18.40
2017-06-28T21:43:30.756Z,18.40
2017-06-28T21:45:58.299Z,18.40
2017-06-28T21:48:25.780Z,18.40
2017-06-28T21:50:53.384Z,18.40
2017-06-28T21:53:20.932Z,18.40
2017-06-28T21:55:48.473Z,18.40
2017-06-28T21:58:16.020Z,18.30
2017-06-28T22:00:43.558Z,18.30
2017-06-28T22:03:11.204Z,18.30
2017-06-28T22:05:38.961Z,18.30
2017-06-28T22:08:06.462Z,18.20
2017-06-28T22:10:33.963Z,18.20
2017-06-28T22:13:01.585Z,18.20
2017-06-28T22:15:29.131Z,18.10
2017-06-28T22:17:56.676Z,18.10
2017-06-28T22:20:36.084Z,18.00
2017-06-28T22:23:03.648Z,18.00
2017-06-28T22:25:31.181Z,18.00
2017-06-28T22:27:58.724Z,17.90
2017-06-28T22:30:26.208Z,17.90
2017-06-28T22:32:53.808Z,17.90
2017-06-28T22:35:21.352Z,17.80
2017-06-28T22:37:48.897Z,17.80
2017-06-28T22:40:16.436Z,17.80
2017-06-28T22:42:43.980Z,17.70
2017-06-28T22:45:11.748Z,17.70
2017-06-28T22:47:39.254Z,17.70
2017-06-28T22:50:07.532Z,17.60
2017-06-28T22:52:35.041Z,17.60
2017-06-28T22:55:02.745Z,17.60
2017-06-28T22:57:30.471Z,17.50
2017-06-28T22:59:58.019Z,17.50
2017-06-28T23:02:25.507Z,17.50
2017-06-28T23:04:53.208Z,17.50
2017-06-28T23:07:20.751Z,17.50
2017-06-28T23:09:48.292Z,17.50
2017-06-28T23:12:15.813Z,17.50
2017-06-28T23:14:44.092Z,17.60
2017-06-28T23:17:11.740Z,17.50
2017-06-28T23:19:39.368Z,17.60
2017-06-28T23:22:06.881Z,17.60
2017-06-28T23:24:34.397Z,17.60
2017-06-28T23:27:02.120Z,17.70
2017-06-28T23:29:29.664Z,17.70
2017-06-28T23:31:57.152Z,17.70
2017-06-28T23:34:24.653Z,17.80
2017-06-28T23:36:52.323Z,17.80
2017-06-28T23:39:19.813Z,17.80
2017-06-28T23:41:48.096Z,17.70
2017-06-28T23:44:15.640Z,17.70
2017-06-28T23:46:43.187Z,17.70
2017-06-28T23:49:10.732Z,17.70
2017-06-28T23:51:38.269Z,17.70
2017-06-28T23:54:05.780Z,17.60
2017-06-28T23:56:34.092Z,17.60
2017-06-28T23:59:01.584Z,17.60
